createdAt,value
2023-04-15T00:00:15.963Z,99059.69
2023-04-15T00:03:20.585Z,99057.06
2023-04-15T00:06:23.674Z,99061.50
2023-04-15T00:09:26.664Z,99068.59
2023-04-15T00:12:30.990Z,99075.72
2023-04-15T00:15:33.766Z,99066.84
2023-04-15T00:18:37.501Z,99062.38
2023-04-15T00:21:40.229Z,99069.53
2023-04-15T00:24:43.144Z,99075.75
2023-04-15T00:27:45.817Z,99072.19
2023-04-15T00:30:50.708Z,99070.41
2023-04-15T00:33:53.574Z,99076.66
2023-04-15T00:36:57.287Z,99080.22
2023-04-15T00:40:00.019Z,99084.66
2023-04-15T00:43:02.623Z,99082.88
2023-04-15T00:46:06.250Z,99085.53
2023-04-15T00:49:08.843Z,99081.09
2023-04-15T00:52:11.686Z,99089.09
2023-04-15T00:55:14.427Z,99089.06
2023-04-15T00:58:17.393Z,99084.66
2023-04-15T01:01:21.994Z,99089.06
2023-04-15T01:04:25.492Z,99088.19
2023-04-15T01:07:28.036Z,99081.09
2023-04-15T01:10:31.646Z,99085.53
2023-04-15T01:13:34.684Z,99086.41
2023-04-15T01:16:39.831Z,99084.63
2023-04-15T01:19:42.851Z,99089.94
2023-04-15T01:22:46.548Z,99091.72
2023-04-15T01:25:49.931Z,99089.94
2023-04-15T01:28:52.736Z,99092.63
2023-04-15T01:31:57.603Z,99093.50
2023-04-15T01:35:02.279Z,99089.97
2023-04-15T01:38:09.224Z,99091.75
2023-04-15T01:41:14.309Z,99092.63
2023-04-15T01:44:17.619Z,99085.50
2023-04-15T01:47:20.677Z,99093.53
2023-04-15T01:50:23.388Z,99090.88
2023-04-15T01:53:26.315Z,99091.78
2023-04-15T01:56:28.955Z,99089.06
2023-04-15T01:59:32.280Z,99088.22
2023-04-15T02:02:34.900Z,99090.84
2023-04-15T02:05:37.812Z,99098.84
2023-04-15T02:08:40.296Z,99083.75
2023-04-15T02:11:43.518Z,99092.63
2023-04-15T02:14:46.243Z,99081.94
2023-04-15T02:17:51.188Z,99087.28
2023-04-15T02:20:53.745Z,99086.37
2023-04-15T02:23:57.194Z,99096.16
2023-04-15T02:26:59.724Z,99087.28
2023-04-15T02:30:03.215Z,99095.25
2023-04-15T02:33:05.846Z,99090.81
2023-04-15T02:36:09.520Z,99100.59
2023-04-15T02:39:12.797Z,99092.59
2023-04-15T02:42:15.621Z,99092.59
2023-04-15T02:45:20.418Z,99091.69
2023-04-15T02:48:23.327Z,99099.69
2023-04-15T02:51:25.968Z,99097.88
2023-04-15T02:54:29.619Z,99097.88
2023-04-15T02:57:32.303Z,99095.22
2023-04-15T03:00:35.423Z,99092.56
2023-04-15T03:03:38.087Z,99099.66
2023-04-15T03:06:46.515Z,99095.22
2023-04-15T03:09:49.051Z,99099.66
2023-04-15T03:12:52.004Z,99096.09
2023-04-15T03:15:55.033Z,99097.88
2023-04-15T03:18:58.379Z,99096.97
2023-04-15T03:22:01.204Z,99099.59
2023-04-15T03:25:04.382Z,99095.19
2023-04-15T03:28:08.323Z,99094.25
2023-04-15T03:31:11.216Z,99091.59
2023-04-15T03:34:13.660Z,99096.03
2023-04-15T03:37:16.626Z,99089.75
2023-04-15T03:40:19.181Z,99097.75
2023-04-15T03:43:22.034Z,99088.81
2023-04-15T03:46:24.715Z,99100.38
2023-04-15T03:49:27.482Z,99104.81
2023-04-15T03:52:29.894Z,99106.56
2023-04-15T03:55:32.639Z,99102.13
2023-04-15T03:58:35.264Z,99104.78
2023-04-15T04:01:38.233Z,99111.00
2023-04-15T04:04:41.102Z,99116.31
2023-04-15T04:07:43.612Z,99116.31
2023-04-15T04:10:46.525Z,99117.19
2023-04-15T04:13:49.042Z,99118.06
2023-04-15T04:16:51.809Z,99123.41
2023-04-15T04:19:54.866Z,99132.25
2023-04-15T04:22:58.074Z,99118.91
2023-04-15T04:26:00.501Z,99126.91
2023-04-15T04:29:03.697Z,99127.78
2023-04-15T04:32:07.015Z,99133.09
2023-04-15T04:35:10.000Z,99136.66
2023-04-15T04:38:12.448Z,99138.41
2023-04-15T04:41:15.269Z,99133.06
2023-04-15T04:44:17.873Z,99134.84
2023-04-15T04:47:20.732Z,99136.59
2023-04-15T04:50:23.326Z,99141.91
2023-04-15T04:53:26.417Z,99139.19
2023-04-15T04:56:28.887Z,99146.28
2023-04-15T04:59:32.176Z,99144.44
2023-04-15T05:02:35.191Z,99155.06
2023-04-15T05:05:41.113Z,99152.28
2023-04-15T05:08:43.611Z,99151.41
2023-04-15T05:11:46.610Z,99155.81
2023-04-15T05:14:49.083Z,99154.87
2023-04-15T05:17:51.879Z,99155.72
2023-04-15T05:20:54.674Z,99159.22
2023-04-15T05:23:57.658Z,99157.41
2023-04-15T05:27:01.914Z,99160.97
2023-04-15T05:30:05.504Z,99165.34
2023-04-15T05:33:08.083Z,99156.44
2023-04-15T05:36:10.913Z,99163.50
2023-04-15T05:39:13.700Z,99159.97
2023-04-15T05:42:16.796Z,99153.66
2023-04-15T05:45:19.340Z,99155.44
2023-04-15T05:48:22.093Z,99157.16
2023-04-15T05:51:24.582Z,99155.22
2023-04-15T05:54:27.899Z,99168.47
2023-04-15T05:57:30.434Z,99167.56
2023-04-15T06:00:33.808Z,99170.16
2023-04-15T06:03:36.669Z,99166.47
2023-04-15T06:06:39.216Z,99186.69
2023-04-15T06:09:42.063Z,99173.94
2023-04-15T06:12:44.719Z,99174.69
2023-04-15T06:15:47.527Z,99177.16
2023-04-15T06:18:49.938Z,99179.88
2023-04-15T06:21:52.815Z,99177.16
2023-04-15T06:24:55.332Z,99184.28
2023-04-15T06:27:58.153Z,99182.34
2023-04-15T06:31:01.985Z,99163.88
2023-04-15T06:34:04.700Z,99185.69
2023-04-15T06:37:07.254Z,99196.78
2023-04-15T06:40:11.225Z,99186.91
2023-04-15T06:43:13.881Z,99189.44
2023-04-15T06:46:16.743Z,99200.87
2023-04-15T06:49:19.568Z,99199.97
2023-04-15T06:52:22.333Z,99196.19
2023-04-15T06:55:24.834Z,99206.19
2023-04-15T06:58:27.626Z,99208.84
2023-04-15T07:01:30.674Z,99210.69
2023-04-15T07:04:34.003Z,99211.28
2023-04-15T07:07:36.805Z,99214.69
2023-04-15T07:10:39.812Z,99223.47
2023-04-15T07:13:42.396Z,99227.81
2023-04-15T07:16:45.224Z,99225.84
2023-04-15T07:19:47.994Z,99227.09
2023-04-15T07:22:50.748Z,99228.69
2023-04-15T07:25:53.618Z,99232.16
2023-04-15T07:28:56.795Z,99236.69
2023-04-15T07:31:59.377Z,99236.34
2023-04-15T07:35:03.663Z,99237.97
2023-04-15T07:38:06.198Z,99243.47
2023-04-15T07:41:09.249Z,99241.63
2023-04-15T07:44:11.775Z,99236.41
2023-04-15T07:47:14.584Z,99244.75
2023-04-15T07:50:17.617Z,99246.03
2023-04-15T07:53:20.683Z,99250.47
2023-04-15T07:56:23.574Z,99251.84
2023-04-15T07:59:30.038Z,99250.78
2023-04-15T08:02:33.468Z,99245.78
2023-04-15T08:05:36.318Z,99250.41
2023-04-15T08:08:39.021Z,99253.03
2023-04-15T08:11:42.371Z,99252.31
2023-04-15T08:14:44.809Z,99256.63
2023-04-15T08:17:47.770Z,99250.75
2023-04-15T08:20:50.288Z,99254.66
2023-04-15T08:23:53.763Z,99255.47
2023-04-15T08:26:57.664Z,99226.69
2023-04-15T08:30:02.139Z,99257.75
2023-04-15T08:33:07.098Z,99251.56
2023-04-15T08:36:09.899Z,99260.81
2023-04-15T08:39:12.718Z,99247.91
2023-04-15T08:42:22.364Z,99262.97
2023-04-15T08:45:25.091Z,99264.16
2023-04-15T08:48:29.377Z,99261.84
2023-04-15T08:51:32.248Z,99267.97
2023-04-15T08:54:36.569Z,99274.78
2023-04-15T08:57:39.996Z,99265.91
2023-04-15T09:00:43.068Z,99274.41
2023-04-15T09:03:46.031Z,99252.66
2023-04-15T09:06:49.306Z,99276.78
2023-04-15T09:09:52.376Z,99280.16
2023-04-15T09:12:56.472Z,99284.75
2023-04-15T09:15:58.914Z,99275.19
2023-04-15T09:19:02.154Z,99283.75
2023-04-15T09:22:05.031Z,99285.09
2023-04-15T09:25:23.112Z,99289.44
2023-04-15T09:28:28.805Z,99288.53
2023-04-15T09:31:32.167Z,99290.88
2023-04-15T09:34:38.119Z,99289.25
2023-04-15T09:37:41.223Z,99295.81
2023-04-15T09:40:43.723Z,99293.75
2023-04-15T09:43:46.473Z,99299.03
2023-04-15T09:46:48.944Z,99302.34
2023-04-15T09:49:59.306Z,99297.31
2023-04-15T09:53:03.679Z,99290.22
2023-04-15T09:56:08.893Z,99296.56
2023-04-15T09:59:11.369Z,99296.12
2023-04-15T10:02:14.472Z,99293.00
2023-04-15T10:05:18.173Z,99287.59
2023-04-15T10:08:22.595Z,99298.66
2023-04-15T10:11:30.334Z,99300.47
2023-04-15T10:14:35.634Z,99300.31
2023-04-15T10:17:39.031Z,99293.91
2023-04-15T10:20:42.220Z,99299.75
2023-04-15T10:23:45.993Z,99301.50
2023-04-15T10:26:48.690Z,99303.16
2023-04-15T10:29:51.623Z,99302.09
2023-04-15T10:32:54.469Z,99306.50
2023-04-15T10:35:57.966Z,99307.69
2023-04-15T10:39:00.456Z,99317.09
2023-04-15T10:42:08.314Z,99314.78
2023-04-15T10:45:17.793Z,99325.00
2023-04-15T10:48:22.822Z,99327.53
2023-04-15T10:51:31.057Z,99336.88
2023-04-15T10:54:36.256Z,99336.31
2023-04-15T10:57:40.684Z,99344.63
2023-04-15T11:00:52.323Z,99352.00
2023-04-15T11:04:02.061Z,99361.66
2023-04-15T11:07:06.842Z,99368.66
2023-04-15T11:10:18.148Z,99374.00
2023-04-15T11:13:22.716Z,99371.19
2023-04-15T11:16:25.311Z,99370.47
2023-04-15T11:19:36.114Z,99369.59
2023-04-15T11:22:38.781Z,99376.47
2023-04-15T11:25:41.884Z,99367.47
2023-04-15T11:28:45.606Z,99376.19
2023-04-15T11:31:51.706Z,99363.00
2023-04-15T11:34:54.207Z,99365.53
2023-04-15T11:37:57.283Z,99370.09
2023-04-15T11:40:59.888Z,99368.06
2023-04-15T11:44:02.907Z,99367.16
2023-04-15T11:47:23.235Z,99376.59
2023-04-15T11:50:25.984Z,99347.97
2023-04-15T11:53:38.258Z,99365.44
2023-04-15T11:56:41.020Z,99373.56
2023-04-15T11:59:45.785Z,99366.97
2023-04-15T12:02:49.444Z,99372.84
2023-04-15T12:06:14.033Z,99374.84
2023-04-15T12:09:20.345Z,99360.03
2023-04-15T12:12:27.780Z,99373.53
2023-04-15T12:15:30.349Z,99369.59
2023-04-15T12:18:33.242Z,99371.75
2023-04-15T12:21:38.193Z,99368.91
2023-04-15T12:24:43.983Z,99374.56
2023-04-15T12:27:52.145Z,99377.69
2023-04-15T12:30:54.979Z,99364.09
2023-04-15T12:33:58.900Z,99372.16
2023-04-15T12:40:10.099Z,99373.19
2023-04-15T12:43:12.800Z,99376.44
2023-04-15T12:46:15.851Z,99381.63
2023-04-15T12:49:20.985Z,99379.19
2023-04-15T12:52:24.459Z,99380.34
2023-04-15T12:55:27.760Z,99384.03
2023-04-15T12:58:30.201Z,99380.25
2023-04-15T13:01:33.201Z,99391.75
2023-04-15T13:04:35.843Z,99386.19
2023-04-15T13:07:39.072Z,99396.31
2023-04-15T13:10:42.571Z,99394.16
2023-04-15T13:13:45.614Z,99402.72
2023-04-15T13:16:48.358Z,99397.72
2023-04-15T13:19:51.371Z,99398.06
2023-04-15T13:22:54.223Z,99405.66
2023-04-15T13:25:57.228Z,99408.22
2023-04-15T13:28:59.930Z,99408.38
2023-04-15T13:32:02.906Z,99383.28
2023-04-15T13:35:05.823Z,99412.09
2023-04-15T13:38:08.601Z,99405.94
2023-04-15T13:41:11.284Z,99415.56
2023-04-15T13:44:14.717Z,99412.88
2023-04-15T13:47:18.049Z,99403.28
2023-04-15T13:50:20.910Z,99407.91
2023-04-15T13:53:33.934Z,99411.03
2023-04-15T13:56:41.995Z,99415.25
2023-04-15T13:59:44.664Z,99419.41
2023-04-15T14:02:48.261Z,99413.94
2023-04-15T14:05:55.916Z,99423.63
2023-04-15T14:08:58.481Z,99427.19
2023-04-15T14:12:02.329Z,99434.59
2023-04-15T14:15:05.375Z,99439.28
2023-04-15T14:18:08.435Z,99438.22
2023-04-15T14:21:11.041Z,99442.38
2023-04-15T14:24:13.870Z,99443.78
2023-04-15T14:27:16.788Z,99447.38
2023-04-15T14:30:20.065Z,99448.41
2023-04-15T14:33:23.016Z,99440.78
2023-04-15T14:36:27.205Z,99455.47
2023-04-15T14:39:30.088Z,99454.56
2023-04-15T14:42:33.026Z,99451.09
2023-04-15T14:45:36.359Z,99456.16
2023-04-15T14:48:39.131Z,99460.16
2023-04-15T14:51:41.883Z,99455.69
2023-04-15T14:54:44.795Z,99478.44
2023-04-15T14:57:47.603Z,99481.13
2023-04-15T15:00:50.412Z,99477.78
2023-04-15T15:03:53.069Z,99477.72
2023-04-15T15:06:55.925Z,99489.41
2023-04-15T15:09:58.482Z,99495.50
2023-04-15T15:13:03.851Z,99490.25
2023-04-15T15:16:06.847Z,99498.44
2023-04-15T15:19:10.653Z,99499.09
2023-04-15T15:22:13.385Z,99503.25
2023-04-15T15:25:16.431Z,99504.97
2023-04-15T15:28:19.140Z,99507.72
2023-04-15T15:31:22.016Z,99514.47
2023-04-15T15:34:24.472Z,99516.34
2023-04-15T15:37:27.171Z,99519.97
2023-04-15T15:40:29.790Z,99522.31
2023-04-15T15:43:32.735Z,99516.81
2023-04-15T15:46:35.259Z,99526.78
2023-04-15T15:49:38.135Z,99525.72
2023-04-15T15:52:41.006Z,99533.44
2023-04-15T15:55:44.132Z,99534.22
2023-04-15T15:58:49.526Z,99541.44
2023-04-15T16:01:52.811Z,99537.38
2023-04-15T16:04:55.885Z,99535.66
2023-04-15T16:07:58.484Z,99548.88
2023-04-15T16:11:01.392Z,99544.69
2023-04-15T16:14:04.052Z,99547.88
2023-04-15T16:17:07.028Z,99554.13
2023-04-15T16:20:09.912Z,99566.03
2023-04-15T16:23:15.482Z,99555.88
2023-04-15T16:26:18.272Z,99563.41
2023-04-15T16:29:21.186Z,99557.22
2023-04-15T16:32:24.015Z,99563.66
2023-04-15T16:35:26.762Z,99571.78
2023-04-15T16:38:29.388Z,99576.50
2023-04-15T16:41:34.246Z,99574.91
2023-04-15T16:44:37.052Z,99579.59
2023-04-15T16:47:39.831Z,99595.03
2023-04-15T16:50:42.424Z,99596.16
2023-04-15T16:53:45.597Z,99599.03
2023-04-15T16:56:48.093Z,99609.06
2023-04-15T16:59:51.382Z,99603.84
2023-04-15T17:02:55.308Z,99618.28
2023-04-15T17:05:58.127Z,99613.91
2023-04-15T17:09:01.040Z,99620.31
2023-04-15T17:12:04.734Z,99622.19
2023-04-15T17:15:08.251Z,99625.84
2023-04-15T17:18:12.129Z,99625.97
2023-04-15T17:21:16.112Z,99639.50
2023-04-15T17:24:18.994Z,99640.56
2023-04-15T17:27:21.799Z,99645.16
2023-04-15T17:30:24.825Z,99652.41
2023-04-15T17:33:56.390Z,99657.94
2023-04-15T17:36:51.472Z,99657.22
2023-04-15T17:39:54.137Z,99674.38
2023-04-15T17:42:58.545Z,99676.25
2023-04-15T17:46:01.444Z,99652.44
2023-04-15T17:49:06.092Z,99686.31
2023-04-15T17:52:14.808Z,99697.13
2023-04-15T17:55:17.842Z,99692.78
2023-04-15T17:58:20.536Z,99712.53
2023-04-15T18:01:23.511Z,99709.94
2023-04-15T18:04:26.965Z,99718.94
2023-04-15T18:07:29.746Z,99719.03
2023-04-15T18:10:33.975Z,99727.16
2023-04-15T18:13:36.680Z,99747.75
2023-04-15T18:16:40.675Z,99736.25
2023-04-15T18:19:43.634Z,99747.00
2023-04-15T18:22:46.734Z,99746.12
2023-04-15T18:25:49.492Z,99745.25
2023-04-15T18:28:52.275Z,99747.91
2023-04-15T18:31:55.193Z,99754.16
2023-04-15T18:34:58.277Z,99758.63
2023-04-15T18:38:01.068Z,99763.09
2023-04-15T18:41:05.478Z,99773.84
2023-04-15T18:44:08.821Z,99778.31
2023-04-15T18:47:11.660Z,99783.69
2023-04-15T18:50:14.382Z,99789.03
2023-04-15T18:53:17.365Z,99789.94
2023-04-15T18:56:20.008Z,99798.88
2023-04-15T18:59:30.243Z,99802.44
2023-04-15T19:02:33.546Z,99804.28
2023-04-15T19:05:37.120Z,99807.84
2023-04-15T19:08:40.307Z,99808.75
2023-04-15T19:11:43.802Z,99815.88
2023-04-15T19:14:46.423Z,99820.34
2023-04-15T19:17:49.565Z,99836.47
2023-04-15T19:20:55.809Z,99840.06
2023-04-15T19:23:59.037Z,99845.44
2023-04-15T19:27:02.182Z,99840.09
2023-04-15T19:30:06.999Z,99847.22
2023-04-15T19:33:09.852Z,99845.50
2023-04-15T19:36:12.954Z,99855.31
2023-04-15T19:39:15.866Z,99861.53
2023-04-15T19:42:18.958Z,99858.88
2023-04-15T19:45:21.657Z,99865.09
2023-04-15T19:48:25.470Z,99866.91
2023-04-15T19:51:28.649Z,99866.91
2023-04-15T19:54:32.433Z,99863.34
2023-04-15T19:57:35.199Z,99874.03
2023-04-15T20:00:38.678Z,99875.81
2023-04-15T20:03:42.336Z,99873.13
2023-04-15T20:06:45.436Z,99876.69
2023-04-15T20:09:48.366Z,99876.69
2023-04-15T20:12:53.152Z,99891.81
2023-04-15T20:15:56.562Z,99891.81
2023-04-15T20:19:04.148Z,99896.25
2023-04-15T20:22:07.237Z,99894.47
2023-04-15T20:25:10.154Z,99892.69
2023-04-15T20:28:13.322Z,99893.56
2023-04-15T20:31:16.152Z,99888.22
2023-04-15T20:34:19.101Z,99901.59
2023-04-15T20:37:22.433Z,99894.50
2023-04-15T20:40:26.042Z,99896.28
2023-04-15T20:43:28.593Z,99904.28
2023-04-15T20:46:31.529Z,99912.31
2023-04-15T20:49:35.495Z,99901.63
2023-04-15T20:52:39.065Z,99905.19
2023-04-15T20:55:41.810Z,99907.84
2023-04-15T20:58:44.640Z,99910.50
2023-04-15T21:01:47.474Z,99923.84
2023-04-15T21:04:50.633Z,99908.72
2023-04-15T21:07:54.115Z,99912.28
2023-04-15T21:10:57.514Z,99920.28
2023-04-15T21:14:00.102Z,99918.50
2023-04-15T21:17:11.113Z,99920.28
2023-04-15T21:20:14.237Z,99931.87
2023-04-15T21:23:17.032Z,99928.31
2023-04-15T21:26:19.502Z,99931.87
2023-04-15T21:29:25.881Z,99928.31
2023-04-15T21:32:30.485Z,99937.19
2023-04-15T21:35:33.337Z,99936.31
2023-04-15T21:38:35.802Z,99936.31
2023-04-15T21:41:38.652Z,99941.66
2023-04-15T21:44:41.437Z,99940.78
2023-04-15T21:48:01.170Z,99939.87
2023-04-15T21:51:06.767Z,99949.69
2023-04-15T21:54:09.550Z,99956.78
2023-04-15T21:57:12.020Z,99955.00
2023-04-15T22:00:15.585Z,99963.00
2023-04-15T22:03:18.483Z,99966.59
2023-04-15T22:06:21.453Z,99969.25
2023-04-15T22:09:24.287Z,99971.03
2023-04-15T22:12:26.837Z,99983.50
2023-04-15T22:15:29.565Z,99982.62
2023-04-15T22:18:32.337Z,99987.06
2023-04-15T22:21:35.510Z,99990.62
2023-04-15T22:24:40.305Z,99987.06
2023-04-15T22:27:43.438Z,99989.72
2023-04-15T22:30:46.098Z,99993.28
2023-04-15T22:33:49.149Z,100002.19
2023-04-15T22:36:52.439Z,99994.16
2023-04-15T22:39:55.493Z,99997.72
2023-04-15T22:42:58.167Z,100005.72
2023-04-15T22:46:01.328Z,100016.44
2023-04-15T22:49:08.823Z,100016.44
2023-04-15T22:52:17.108Z,100020.88
2023-04-15T22:55:26.143Z,100027.09
2023-04-15T22:58:28.986Z,100021.75
2023-04-15T23:01:32.354Z,100028.88
2023-04-15T23:04:35.702Z,100025.28
2023-04-15T23:07:38.313Z,100032.38
2023-04-15T23:10:41.159Z,100034.13
2023-04-15T23:13:43.577Z,100031.44
2023-04-15T23:16:46.796Z,100039.41
2023-04-15T23:19:49.295Z,100036.69
2023-04-15T23:22:52.386Z,100032.22
2023-04-15T23:25:54.929Z,100036.63
2023-04-15T23:28:57.681Z,100033.91
2023-04-15T23:32:00.600Z,100040.94
2023-04-15T23:35:03.693Z,100040.87
2023-04-15T23:38:06.446Z,100043.50
2023-04-15T23:41:10.010Z,100049.69
2023-04-15T23:44:12.841Z,100049.69
2023-04-15T23:47:15.704Z,100052.31
2023-04-15T23:50:18.127Z,100050.59
2023-04-15T23:53:21.028Z,100039.94
2023-04-15T23:56:23.541Z,100038.94
2023-04-15T23:59:26.543Z,100051.38
